sensor_id;sensor_type;location;lat;lon;timestamp;pressure;altitude;pressure_sealevel;temperature;humidity
25650;BME280;13505;45.196;5.696;2023-08-30T04:32:41;98614.59;;;13.82;85.72
25650;BME280;13505;45.196;5.696;2023-08-30T04:37:32;98608.84;;;13.63;84.52
25650;BME280;13505;45.196;5.696;2023-08-30T04:42:22;98618.28;;;13.67;85.04
25650;BME280;13505;45.196;5.696;2023-08-30T04:47:12;98623.47;;;13.56;87.16
25650;BME280;13505;45.196;5.696;2023-08-30T04:52:04;98617.34;;;13.55;87.25
25650;BME280;13505;45.196;5.696;2023-08-30T04:56:54;98615.72;;;13.52;87.66
25650;BME280;13505;45.196;5.696;2023-08-30T05:01:44;98614.69;;;13.55;87.02
25650;BME280;13505;45.196;5.696;2023-08-30T05:06:35;98614.38;;;13.60;87.29
25650;BME280;13505;45.196;5.696;2023-08-30T05:11:25;98622.41;;;13.58;87.38
25650;BME280;13505;45.196;5.696;2023-08-30T05:16:16;98622.81;;;13.52;84.21
25650;BME280;13505;45.196;5.696;2023-08-30T05:21:06;98616.91;;;13.61;84.87
25650;BME280;13505;45.196;5.696;2023-08-30T05:25:56;98620.28;;;13.63;86.84
25650;BME280;13505;45.196;5.696;2023-08-30T05:30:47;98622.19;;;13.61;88.70
25650;BME280;13505;45.196;5.696;2023-08-30T05:35:37;98633.22;;;13.68;88.40
25650;BME280;13505;45.196;5.696;2023-08-30T05:40:27;98629.72;;;13.54;86.88
25650;BME280;13505;45.196;5.696;2023-08-30T05:45:18;98628.16;;;13.78;88.44
25650;BME280;13505;45.196;5.696;2023-08-30T05:50:08;98631.75;;;13.90;88.13
25650;BME280;13505;45.196;5.696;2023-08-30T05:54:59;98627.66;;;13.99;87.60
25650;BME280;13505;45.196;5.696;2023-08-30T05:59:49;98630.72;;;14.18;87.92
25650;BME280;13505;45.196;5.696;2023-08-30T06:04:40;98635.91;;;13.94;88.17
25650;BME280;13505;45.196;5.696;2023-08-30T06:09:30;98644.81;;;14.32;84.79
25650;BME280;13505;45.196;5.696;2023-08-30T06:14:21;98646.59;;;14.57;82.79
25650;BME280;13505;45.196;5.696;2023-08-30T06:19:12;98648.81;;;14.76;82.33
25650;BME280;13505;45.196;5.696;2023-08-30T06:24:02;98646.59;;;14.57;82.96
25650;BME280;13505;45.196;5.696;2023-08-30T06:28:53;98662.72;;;14.80;82.24
25650;BME280;13505;45.196;5.696;2023-08-30T06:33:43;98669.00;;;14.79;82.20
25650;BME280;13505;45.196;5.696;2023-08-30T06:38:34;98673.66;;;15.13;80.00
25650;BME280;13505;45.196;5.696;2023-08-30T06:43:24;98663.91;;;15.38;78.62
25650;BME280;13505;45.196;5.696;2023-08-30T06:48:14;98669.06;;;15.63;77.04
25650;BME280;13505;45.196;5.696;2023-08-30T06:53:05;98668.28;;;15.86;76.35
25650;BME280;13505;45.196;5.696;2023-08-30T06:57:55;98670.69;;;16.13;74.85
25650;BME280;13505;45.196;5.696;2023-08-30T07:02:45;98665.38;;;16.36;73.69
25650;BME280;13505;45.196;5.696;2023-08-30T07:07:36;98662.09;;;16.55;71.83
25650;BME280;13505;45.196;5.696;2023-08-30T07:12:26;98666.56;;;16.78;71.55
25650;BME280;13505;45.196;5.696;2023-08-30T07:17:16;98660.59;;;16.97;71.07
25650;BME280;13505;45.196;5.696;2023-08-30T07:22:07;98664.22;;;17.19;69.46
25650;BME280;13505;45.196;5.696;2023-08-30T07:26:57;98652.78;;;17.39;69.66
25650;BME280;13505;45.196;5.696;2023-08-30T07:31:48;98652.00;;;17.49;68.45
25650;BME280;13505;45.196;5.696;2023-08-30T07:36:41;98660.75;;;17.72;68.48
25650;BME280;13505;45.196;5.696;2023-08-30T07:41:33;98661.69;;;17.82;66.68
25650;BME280;13505;45.196;5.696;2023-08-30T07:46:24;98650.91;;;18.05;65.18
25650;BME280;13505;45.196;5.696;2023-08-30T07:51:15;98659.66;;;17.96;63.63
25650;BME280;13505;45.196;5.696;2023-08-30T07:56:06;98665.69;;;18.40;62.31
25650;BME280;13505;45.196;5.696;2023-08-30T08:00:56;98660.47;;;18.08;63.17
25650;BME280;13505;45.196;5.696;2023-08-30T08:05:46;98659.59;;;18.29;61.34
25650;BME280;13505;45.196;5.696;2023-08-30T08:10:37;98659.72;;;18.58;60.46
25650;BME280;13505;45.196;5.696;2023-08-30T08:15:28;98665.66;;;18.09;61.43
25650;BME280;13505;45.196;5.696;2023-08-30T08:20:20;98660.22;;;18.83;61.20
25650;BME280;13505;45.196;5.696;2023-08-30T08:25:11;98665.69;;;19.52;58.75
25650;BME280;13505;45.196;5.696;2023-08-30T08:30:02;98661.91;;;19.55;56.85
25650;BME280;13505;45.196;5.696;2023-08-30T08:34:54;98657.97;;;19.19;58.95
25650;BME280;13505;45.196;5.696;2023-08-30T08:39:44;98658.13;;;18.77;60.05
25650;BME280;13505;45.196;5.696;2023-08-30T08:44:36;98665.94;;;18.59;61.57
25650;BME280;13505;45.196;5.696;2023-08-30T08:49:28;98662.28;;;18.69;61.44
25650;BME280;13505;45.196;5.696;2023-08-30T08:54:21;98665.34;;;18.24;62.83
25650;BME280;13505;45.196;5.696;2023-08-30T08:59:12;98657.69;;;19.42;58.09
25650;BME280;13505;45.196;5.696;2023-08-30T09:04:06;98662.75;;;19.65;56.16
25650;BME280;13505;45.196;5.696;2023-08-30T09:08:57;98651.44;;;20.86;54.33
25650;BME280;13505;45.196;5.696;2023-08-30T09:13:47;98643.16;;;21.08;51.46
25650;BME280;13505;45.196;5.696;2023-08-30T09:18:37;98642.19;;;21.81;48.98
25650;BME280;13505;45.196;5.696;2023-08-30T09:23:28;98642.06;;;22.17;48.39
25650;BME280;13505;45.196;5.696;2023-08-30T09:28:18;98637.06;;;20.12;55.51
25650;BME280;13505;45.196;5.696;2023-08-30T09:33:08;98635.59;;;21.75;51.43
25650;BME280;13505;45.196;5.696;2023-08-30T09:37:59;98635.97;;;21.81;48.46
25650;BME280;13505;45.196;5.696;2023-08-30T09:42:50;98630.81;;;22.75;46.39
25650;BME280;13505;45.196;5.696;2023-08-30T09:47:40;98609.53;;;22.98;45.54
25650;BME280;13505;45.196;5.696;2023-08-30T09:52:32;98612.22;;;21.31;48.64
25650;BME280;13505;45.196;5.696;2023-08-30T09:57:24;98606.34;;;22.17;48.10
25650;BME280;13505;45.196;5.696;2023-08-30T10:02:15;98605.72;;;22.58;45.93
25650;BME280;13505;45.196;5.696;2023-08-30T10:07:06;98595.34;;;22.71;46.58
25650;BME280;13505;45.196;5.696;2023-08-30T10:11:58;98590.28;;;21.36;50.77
25650;BME280;13505;45.196;5.696;2023-08-30T10:16:49;98591.09;;;22.52;46.83
25650;BME280;13505;45.196;5.696;2023-08-30T10:21:43;98578.06;;;22.39;47.62
25650;BME280;13505;45.196;5.696;2023-08-30T10:26:35;98568.72;;;23.03;47.38
25650;BME280;13505;45.196;5.696;2023-08-30T10:31:27;98565.88;;;23.63;46.00
25650;BME280;13505;45.196;5.696;2023-08-30T10:36:24;98550.53;;;24.45;44.50
25650;BME280;13505;45.196;5.696;2023-08-30T10:41:19;98552.19;;;24.54;44.64
25650;BME280;13505;45.196;5.696;2023-08-30T10:46:10;98545.53;;;24.33;44.64
25650;BME280;13505;45.196;5.696;2023-08-30T10:51:01;98533.28;;;25.17;41.74
25650;BME280;13505;45.196;5.696;2023-08-30T10:56:10;98540.94;;;25.29;41.58
25650;BME280;13505;45.196;5.696;2023-08-30T11:01:01;98532.38;;;25.25;41.55
25650;BME280;13505;45.196;5.696;2023-08-30T11:05:52;98523.47;;;25.40;41.06
25650;BME280;13505;45.196;5.696;2023-08-30T11:10:42;98520.00;;;25.99;39.97
25650;BME280;13505;45.196;5.696;2023-08-30T11:15:33;98524.28;;;25.94;39.46
25650;BME280;13505;45.196;5.696;2023-08-30T11:20:23;98529.22;;;26.50;39.33
25650;BME280;13505;45.196;5.696;2023-08-30T11:25:14;98525.94;;;26.55;38.31
25650;BME280;13505;45.196;5.696;2023-08-30T11:30:06;98522.81;;;26.73;37.46
25650;BME280;13505;45.196;5.696;2023-08-30T11:34:58;98526.59;;;26.94;36.92
25650;BME280;13505;45.196;5.696;2023-08-30T11:39:52;98537.69;;;26.99;37.08
25650;BME280;13505;45.196;5.696;2023-08-30T11:44:44;98543.16;;;27.27;35.59
25650;BME280;13505;45.196;5.696;2023-08-30T11:49:34;98538.25;;;26.57;37.07
25650;BME280;13505;45.196;5.696;2023-08-30T11:54:25;98535.88;;;26.69;37.09
25650;BME280;13505;45.196;5.696;2023-08-30T11:59:22;98553.84;;;25.95;37.30
25650;BME280;13505;45.196;5.696;2023-08-30T12:04:13;98549.91;;;26.43;35.86
25650;BME280;13505;45.196;5.696;2023-08-30T12:09:03;98550.19;;;26.03;37.81
25650;BME280;13505;45.196;5.696;2023-08-30T12:14:01;98545.16;;;25.85;37.38
25650;BME280;13505;45.196;5.696;2023-08-30T12:18:52;98539.13;;;25.83;37.44
25650;BME280;13505;45.196;5.696;2023-08-30T12:23:42;98535.88;;;25.87;36.51
25650;BME280;13505;45.196;5.696;2023-08-30T12:28:34;98535.28;;;26.07;37.11
25650;BME280;13505;45.196;5.696;2023-08-30T12:33:25;98535.84;;;26.47;35.85
25650;BME280;13505;45.196;5.696;2023-08-30T12:38:16;98535.66;;;26.49;36.07
25650;BME280;13505;45.196;5.696;2023-08-30T12:43:07;98529.38;;;26.85;35.65
25650;BME280;13505;45.196;5.696;2023-08-30T12:47:57;98543.34;;;27.04;34.94
25650;BME280;13505;45.196;5.696;2023-08-30T12:52:48;98546.84;;;26.98;34.74
25650;BME280;13505;45.196;5.696;2023-08-30T12:57:39;98549.41;;;26.69;34.77
25650;BME280;13505;45.196;5.696;2023-08-30T13:02:29;98541.38;;;26.24;35.61
25650;BME280;13505;45.196;5.696;2023-08-30T13:07:19;98543.69;;;26.12;36.51
25650;BME280;13505;45.196;5.696;2023-08-30T13:12:10;98546.75;;;26.39;35.80
25650;BME280;13505;45.196;5.696;2023-08-30T13:17:00;98531.63;;;26.82;34.81
25650;BME280;13505;45.196;5.696;2023-08-30T13:21:51;98531.91;;;26.87;34.48
25650;BME280;13505;45.196;5.696;2023-08-30T13:26:41;98528.91;;;26.97;34.45
25650;BME280;13505;45.196;5.696;2023-08-30T13:31:32;98521.00;;;26.58;34.69
25650;BME280;13505;45.196;5.696;2023-08-30T13:36:22;98539.97;;;26.28;35.24
25650;BME280;13505;45.196;5.696;2023-08-30T13:41:12;98543.84;;;25.96;36.04
25650;BME280;13505;45.196;5.696;2023-08-30T13:46:03;98535.09;;;25.78;37.30
25650;BME280;13505;45.196;5.696;2023-08-30T13:50:54;98529.97;;;26.44;35.53
25650;BME280;13505;45.196;5.696;2023-08-30T13:55:47;98520.94;;;26.52;36.02
25650;BME280;13505;45.196;5.696;2023-08-30T14:00:38;98512.50;;;26.61;35.78
25650;BME280;13505;45.196;5.696;2023-08-30T14:05:29;98518.03;;;26.75;35.89
25650;BME280;13505;45.196;5.696;2023-08-30T14:10:19;98520.19;;;26.80;35.46
25650;BME280;13505;45.196;5.696;2023-08-30T14:15:09;98515.72;;;26.72;35.30
25650;BME280;13505;45.196;5.696;2023-08-30T14:20:00;98520.09;;;26.73;34.74
25650;BME280;13505;45.196;5.696;2023-08-30T14:24:51;98523.53;;;26.82;35.25
25650;BME280;13505;45.196;5.696;2023-08-30T14:29:41;98522.63;;;26.74;35.55
25650;BME280;13505;45.196;5.696;2023-08-30T14:34:32;98533.31;;;26.61;35.80
25650;BME280;13505;45.196;5.696;2023-08-30T14:39:22;98529.31;;;26.42;36.61
25650;BME280;13505;45.196;5.696;2023-08-30T14:44:12;98530.28;;;26.71;35.11
25650;BME280;13505;45.196;5.696;2023-08-30T14:49:03;98533.63;;;26.73;35.74
25650;BME280;13505;45.196;5.696;2023-08-30T14:53:53;98528.03;;;26.38;36.38
25650;BME280;13505;45.196;5.696;2023-08-30T14:58:43;98532.03;;;26.42;36.61
25650;BME280;13505;45.196;5.696;2023-08-30T15:03:39;98539.56;;;26.46;36.18
25650;BME280;13505;45.196;5.696;2023-08-30T15:08:29;98544.72;;;26.26;36.66
25650;BME280;13505;45.196;5.696;2023-08-30T15:13:20;98552.81;;;25.96;36.48
25650;BME280;13505;45.196;5.696;2023-08-30T15:18:11;98548.13;;;25.75;37.24
25650;BME280;13505;45.196;5.696;2023-08-30T15:23:01;98554.22;;;25.92;36.26
25650;BME280;13505;45.196;5.696;2023-08-30T15:27:51;98555.13;;;25.84;36.14
25650;BME280;13505;45.196;5.696;2023-08-30T15:32:42;98559.41;;;25.78;36.16
25650;BME280;13505;45.196;5.696;2023-08-30T15:37:32;98561.72;;;25.67;35.51
25650;BME280;13505;45.196;5.696;2023-08-30T15:42:23;98565.22;;;25.52;36.52
25650;BME280;13505;45.196;5.696;2023-08-30T15:47:13;98572.22;;;25.38;36.53
25650;BME280;13505;45.196;5.696;2023-08-30T15:52:03;98561.19;;;25.48;35.63
25650;BME280;13505;45.196;5.696;2023-08-30T15:56:54;98563.88;;;25.25;36.06
25650;BME280;13505;45.196;5.696;2023-08-30T16:01:44;98566.03;;;25.06;36.90
25650;BME280;13505;45.196;5.696;2023-08-30T16:06:34;98560.53;;;24.99;36.99
25650;BME280;13505;45.196;5.696;2023-08-30T16:11:24;98558.38;;;24.94;36.92
25650;BME280;13505;45.196;5.696;2023-08-30T16:16:15;98558.09;;;24.89;37.24
25650;BME280;13505;45.196;5.696;2023-08-30T16:21:05;98561.06;;;24.63;37.62
25650;BME280;13505;45.196;5.696;2023-08-30T16:25:57;98560.56;;;24.59;37.66
25650;BME280;13505;45.196;5.696;2023-08-30T16:30:48;98560.44;;;24.52;37.99
25650;BME280;13505;45.196;5.696;2023-08-30T16:35:38;98568.25;;;24.39;38.58
25650;BME280;13505;45.196;5.696;2023-08-30T16:40:28;98563.94;;;24.21;38.31
25650;BME280;13505;45.196;5.696;2023-08-30T16:45:19;98572.75;;;24.07;38.01
25650;BME280;13505;45.196;5.696;2023-08-30T16:50:09;98576.44;;;23.89;38.43
25650;BME280;13505;45.196;5.696;2023-08-30T16:55:02;98582.03;;;23.79;38.41
25650;BME280;13505;45.196;5.696;2023-08-30T16:59:52;98576.97;;;23.76;38.72
25650;BME280;13505;45.196;5.696;2023-08-30T17:04:44;98585.22;;;23.41;39.10
25650;BME280;13505;45.196;5.696;2023-08-30T17:09:36;98585.06;;;23.35;40.16
25650;BME280;13505;45.196;5.696;2023-08-30T17:14:27;98583.34;;;23.25;39.99
25650;BME280;13505;45.196;5.696;2023-08-30T17:19:17;98585.53;;;23.13;40.29
25650;BME280;13505;45.196;5.696;2023-08-30T17:24:08;98587.88;;;23.00;40.95
25650;BME280;13505;45.196;5.696;2023-08-30T17:28:58;98589.50;;;22.84;41.03
25650;BME280;13505;45.196;5.696;2023-08-30T17:33:49;98590.81;;;22.72;41.62
25650;BME280;13505;45.196;5.696;2023-08-30T17:38:39;98604.38;;;22.62;42.01
25650;BME280;13505;45.196;5.696;2023-08-30T17:43:30;98616.56;;;22.48;42.50
25650;BME280;13505;45.196;5.696;2023-08-30T17:48:20;98622.22;;;22.37;42.57
25650;BME280;13505;45.196;5.696;2023-08-30T17:53:10;98624.69;;;22.30;42.63
25650;BME280;13505;45.196;5.696;2023-08-30T17:58:03;98632.00;;;22.20;42.64
25650;BME280;13505;45.196;5.696;2023-08-30T18:02:53;98629.91;;;22.05;43.28
25650;BME280;13505;45.196;5.696;2023-08-30T18:07:44;98637.91;;;21.97;43.50
25650;BME280;13505;45.196;5.696;2023-08-30T18:12:34;98638.09;;;21.77;43.66
25650;BME280;13505;45.196;5.696;2023-08-30T18:17:27;98650.84;;;21.75;43.89
25650;BME280;13505;45.196;5.696;2023-08-30T18:22:22;98649.91;;;21.66;44.27
25650;BME280;13505;45.196;5.696;2023-08-30T18:27:12;98666.09;;;21.56;44.30
25650;BME280;13505;45.196;5.696;2023-08-30T18:32:05;98676.91;;;21.46;44.96
25650;BME280;13505;45.196;5.696;2023-08-30T18:36:56;98680.88;;;21.42;45.13
25650;BME280;13505;45.196;5.696;2023-08-30T18:41:48;98688.63;;;21.27;45.28
25650;BME280;13505;45.196;5.696;2023-08-30T18:46:38;98702.47;;;21.23;45.39
25650;BME280;13505;45.196;5.696;2023-08-30T18:51:29;98714.66;;;21.17;45.78
25650;BME280;13505;45.196;5.696;2023-08-30T18:56:19;98721.22;;;21.04;45.81
25650;BME280;13505;45.196;5.696;2023-08-30T19:01:11;98725.16;;;21.00;46.36
25650;BME280;13505;45.196;5.696;2023-08-30T19:06:03;98734.69;;;20.85;46.57
25650;BME280;13505;45.196;5.696;2023-08-30T19:10:57;98742.69;;;20.47;47.53
25650;BME280;13505;45.196;5.696;2023-08-30T19:15:47;98747.44;;;20.53;47.25
25650;BME280;13505;45.196;5.696;2023-08-30T19:20:37;98763.25;;;20.46;47.30
25650;BME280;13505;45.196;5.696;2023-08-30T19:25:31;98779.34;;;20.27;47.07
25650;BME280;13505;45.196;5.696;2023-08-30T19:30:23;98773.19;;;20.26;47.01
25650;BME280;13505;45.196;5.696;2023-08-30T19:35:14;98778.66;;;20.25;46.97
25650;BME280;13505;45.196;5.696;2023-08-30T19:40:08;98785.13;;;20.22;47.05
25650;BME280;13505;45.196;5.696;2023-08-30T19:44:59;98798.13;;;20.17;46.68
25650;BME280;13505;45.196;5.696;2023-08-30T19:49:51;98800.94;;;20.15;46.50
25650;BME280;13505;45.196;5.696;2023-08-30T19:54:42;98810.13;;;20.13;47.81
25650;BME280;13505;45.196;5.696;2023-08-30T19:59:34;98801.78;;;20.06;48.29
25650;BME280;13505;45.196;5.696;2023-08-30T20:04:25;98806.66;;;19.91;48.90
25650;BME280;13505;45.196;5.696;2023-08-30T20:09:15;98816.94;;;19.86;49.45
25650;BME280;13505;45.196;5.696;2023-08-30T20:14:06;98814.97;;;19.78;50.13
25650;BME280;13505;45.196;5.696;2023-08-30T20:18:56;98818.19;;;19.72;51.06
25650;BME280;13505;45.196;5.696;2023-08-30T20:23:47;98816.75;;;19.58;51.06
25650;BME280;13505;45.196;5.696;2023-08-30T20:28:38;98820.09;;;19.40;52.32
25650;BME280;13505;45.196;5.696;2023-08-30T20:33:28;98822.03;;;19.28;53.03
25650;BME280;13505;45.196;5.696;2023-08-30T20:38:18;98819.88;;;19.22;53.17
25650;BME280;13505;45.196;5.696;2023-08-30T20:43:09;98831.66;;;19.09;54.16
25650;BME280;13505;45.196;5.696;2023-08-30T20:47:59;98821.88;;;18.99;53.51
25650;BME280;13505;45.196;5.696;2023-08-30T20:52:49;98833.94;;;18.72;50.67
25650;BME280;13505;45.196;5.696;2023-08-30T20:57:40;98834.34;;;18.88;50.65
25650;BME280;13505;45.196;5.696;2023-08-30T21:02:30;98835.56;;;19.05;50.09
25650;BME280;13505;45.196;5.696;2023-08-30T21:07:25;98834.00;;;19.03;50.45
25650;BME280;13505;45.196;5.696;2023-08-30T21:12:15;98835.84;;;19.02;51.29
25650;BME280;13505;45.196;5.696;2023-08-30T21:17:05;98841.09;;;18.92;51.49
25650;BME280;13505;45.196;5.696;2023-08-30T21:21:56;98851.28;;;18.77;52.71
25650;BME280;13505;45.196;5.696;2023-08-30T21:26:47;98846.59;;;18.69;53.67
25650;BME280;13505;45.196;5.696;2023-08-30T21:31:37;98854.09;;;18.54;55.28
25650;BME280;13505;45.196;5.696;2023-08-30T21:36:28;98862.09;;;18.33;56.12
25650;BME280;13505;45.196;5.696;2023-08-30T21:41:18;98850.81;;;18.30;56.75
25650;BME280;13505;45.196;5.696;2023-08-30T21:46:10;98845.25;;;18.21;55.77
25650;BME280;13505;45.196;5.696;2023-08-30T21:51:00;98856.81;;;18.10;57.39
25650;BME280;13505;45.196;5.696;2023-08-30T21:55:50;98870.91;;;18.01;56.56
